sensor_id;sensor_type;location;lat;lon;timestamp;pressure;altitude;pressure_sealevel;temperature;humidity
63916;BME280;50094;51.356;-0.196;2023-07-31T00:01:57;100177.98;;;26.83;42.27
63916;BME280;50094;51.356;-0.196;2023-07-31T00:04:25;100174.42;;;27.06;42.04
63916;BME280;50094;51.356;-0.196;2023-07-31T00:06:52;100171.80;;;26.77;42.27
63916;BME280;50094;51.356;-0.196;2023-07-31T00:09:20;100165.58;;;26.91;41.83
63916;BME280;50094;51.356;-0.196;2023-07-31T00:11:48;100164.35;;;26.73;42.54
63916;BME280;50094;51.356;-0.196;2023-07-31T00:14:15;100160.34;;;26.28;42.70
63916;BME280;50094;51.356;-0.196;2023-07-31T00:16:43;100159.63;;;26.65;42.66
63916;BME280;50094;51.356;-0.196;2023-07-31T00:19:11;100160.51;;;26.55;42.50
63916;BME280;50094;51.356;-0.196;2023-07-31T00:21:38;100155.25;;;26.47;42.87
63916;BME280;50094;51.356;-0.196;2023-07-31T00:24:06;100150.91;;;26.15;42.93
63916;BME280;50094;51.356;-0.196;2023-07-31T00:26:33;100151.03;;;26.54;43.02
63916;BME280;50094;51.356;-0.196;2023-07-31T00:29:01;100149.50;;;26.63;43.12
63916;BME280;50094;51.356;-0.196;2023-07-31T00:31:29;100141.70;;;26.48;43.03
63916;BME280;50094;51.356;-0.196;2023-07-31T00:33:56;100144.68;;;26.92;42.90
63916;BME280;50094;51.356;-0.196;2023-07-31T00:36:24;100138.15;;;26.24;42.91
63916;BME280;50094;51.356;-0.196;2023-07-31T00:38:51;100135.79;;;26.82;42.57
63916;BME280;50094;51.356;-0.196;2023-07-31T00:41:19;100132.20;;;26.71;42.52
63916;BME280;50094;51.356;-0.196;2023-07-31T00:43:47;100123.87;;;26.68;42.60
63916;BME280;50094;51.356;-0.196;2023-07-31T00:46:14;100122.54;;;26.72;42.65
63916;BME280;50094;51.356;-0.196;2023-07-31T00:48:43;100120.14;;;26.64;42.70
63916;BME280;50094;51.356;-0.196;2023-07-31T00:51:10;100115.00;;;26.66;42.66
63916;BME280;50094;51.356;-0.196;2023-07-31T00:53:38;100113.92;;;26.55;42.48
63916;BME280;50094;51.356;-0.196;2023-07-31T00:56:06;100111.37;;;26.36;42.87
63916;BME280;50094;51.356;-0.196;2023-07-31T00:58:33;100102.82;;;26.75;42.63
63916;BME280;50094;51.356;-0.196;2023-07-31T01:01:00;100102.60;;;26.54;42.80
63916;BME280;50094;51.356;-0.196;2023-07-31T01:03:28;100101.07;;;26.24;43.16
63916;BME280;50094;51.356;-0.196;2023-07-31T01:06:04;100085.60;;;26.52;43.16
63916;BME280;50094;51.356;-0.196;2023-07-31T01:08:40;100086.63;;;26.11;43.48
63916;BME280;50094;51.356;-0.196;2023-07-31T01:11:13;100077.01;;;26.95;42.90
63916;BME280;50094;51.356;-0.196;2023-07-31T01:13:42;100065.29;;;26.67;43.08
63916;BME280;50094;51.356;-0.196;2023-07-31T01:16:09;100064.85;;;26.72;43.24
63916;BME280;50094;51.356;-0.196;2023-07-31T01:18:37;100063.00;;;26.55;43.31
63916;BME280;50094;51.356;-0.196;2023-07-31T01:21:21;100062.53;;;26.49;42.91
63916;BME280;50094;51.356;-0.196;2023-07-31T01:24:08;100059.73;;;26.30;43.34
63916;BME280;50094;51.356;-0.196;2023-07-31T01:26:43;100056.93;;;26.63;43.46
63916;BME280;50094;51.356;-0.196;2023-07-31T01:29:17;100049.85;;;26.55;43.30
63916;BME280;50094;51.356;-0.196;2023-07-31T01:31:49;100048.13;;;26.43;43.48
63916;BME280;50094;51.356;-0.196;2023-07-31T01:34:17;100036.49;;;26.68;43.37
63916;BME280;50094;51.356;-0.196;2023-07-31T01:36:45;100034.10;;;26.61;43.31
63916;BME280;50094;51.356;-0.196;2023-07-31T01:39:13;100026.57;;;26.25;43.37
63916;BME280;50094;51.356;-0.196;2023-07-31T01:41:40;100022.23;;;26.68;43.20
63916;BME280;50094;51.356;-0.196;2023-07-31T01:44:08;100024.87;;;26.47;43.10
63916;BME280;50094;51.356;-0.196;2023-07-31T01:46:35;100022.84;;;26.89;43.01
63916;BME280;50094;51.356;-0.196;2023-07-31T01:49:02;100015.16;;;26.38;43.10
63916;BME280;50094;51.356;-0.196;2023-07-31T01:51:30;100013.70;;;26.30;43.63
63916;BME280;50094;51.356;-0.196;2023-07-31T01:53:58;100000.43;;;26.70;43.33
63916;BME280;50094;51.356;-0.196;2023-07-31T01:56:25;99996.05;;;26.31;43.58
63916;BME280;50094;51.356;-0.196;2023-07-31T01:58:53;99998.88;;;26.57;43.19
63916;BME280;50094;51.356;-0.196;2023-07-31T02:01:20;99999.57;;;26.42;43.38
63916;BME280;50094;51.356;-0.196;2023-07-31T02:03:48;99997.34;;;26.61;43.40
63916;BME280;50094;51.356;-0.196;2023-07-31T02:06:16;99998.93;;;25.99;43.63
63916;BME280;50094;51.356;-0.196;2023-07-31T02:08:43;99998.11;;;26.65;43.08
63916;BME280;50094;51.356;-0.196;2023-07-31T02:11:11;99996.81;;;26.30;43.19
63916;BME280;50094;51.356;-0.196;2023-07-31T02:13:38;99989.80;;;26.33;43.16
63916;BME280;50094;51.356;-0.196;2023-07-31T02:16:06;99984.79;;;26.37;43.48
63916;BME280;50094;51.356;-0.196;2023-07-31T02:18:34;99986.99;;;26.38;43.20
63916;BME280;50094;51.356;-0.196;2023-07-31T02:21:01;99978.96;;;25.98;43.74
63916;BME280;50094;51.356;-0.196;2023-07-31T02:23:29;99984.30;;;26.09;43.58
63916;BME280;50094;51.356;-0.196;2023-07-31T02:25:56;99977.23;;;26.44;43.47
63916;BME280;50094;51.356;-0.196;2023-07-31T02:28:24;99966.26;;;26.33;43.66
63916;BME280;50094;51.356;-0.196;2023-07-31T02:30:52;99957.57;;;26.48;43.45
63916;BME280;50094;51.356;-0.196;2023-07-31T02:33:19;99960.00;;;26.23;43.51
63916;BME280;50094;51.356;-0.196;2023-07-31T02:35:47;99952.92;;;26.53;43.42
63916;BME280;50094;51.356;-0.196;2023-07-31T02:38:14;99956.68;;;26.47;43.46
63916;BME280;50094;51.356;-0.196;2023-07-31T02:40:42;99954.42;;;26.64;43.54
63916;BME280;50094;51.356;-0.196;2023-07-31T02:43:10;99940.29;;;26.34;43.30
63916;BME280;50094;51.356;-0.196;2023-07-31T02:45:37;99940.45;;;26.77;43.35
63916;BME280;50094;51.356;-0.196;2023-07-31T02:48:05;99940.42;;;26.63;43.25
63916;BME280;50094;51.356;-0.196;2023-07-31T02:50:33;99934.04;;;26.29;43.50
63916;BME280;50094;51.356;-0.196;2023-07-31T02:53:00;99931.61;;;26.56;43.40
63916;BME280;50094;51.356;-0.196;2023-07-31T02:55:28;99932.20;;;26.18;44.03
63916;BME280;50094;51.356;-0.196;2023-07-31T02:57:55;99926.39;;;26.39;44.05
63916;BME280;50094;51.356;-0.196;2023-07-31T03:00:23;99927.38;;;26.52;43.83
63916;BME280;50094;51.356;-0.196;2023-07-31T03:02:51;99928.38;;;26.61;43.71
63916;BME280;50094;51.356;-0.196;2023-07-31T03:05:18;99931.40;;;26.54;43.81
63916;BME280;50094;51.356;-0.196;2023-07-31T03:07:46;99929.45;;;26.10;44.15
63916;BME280;50094;51.356;-0.196;2023-07-31T03:10:14;99924.11;;;26.76;43.44
63916;BME280;50094;51.356;-0.196;2023-07-31T03:12:41;99930.19;;;26.57;43.46
63916;BME280;50094;51.356;-0.196;2023-07-31T03:15:09;99929.70;;;26.18;43.67
63916;BME280;50094;51.356;-0.196;2023-07-31T03:17:37;99924.58;;;26.55;43.78
63916;BME280;50094;51.356;-0.196;2023-07-31T03:20:04;99928.92;;;26.33;44.13
63916;BME280;50094;51.356;-0.196;2023-07-31T03:22:31;99928.78;;;26.49;43.96
63916;BME280;50094;51.356;-0.196;2023-07-31T03:24:59;99925.60;;;26.48;43.52
63916;BME280;50094;51.356;-0.196;2023-07-31T03:27:27;99928.21;;;26.29;43.53
63916;BME280;50094;51.356;-0.196;2023-07-31T03:29:54;99927.98;;;26.68;43.60
63916;BME280;50094;51.356;-0.196;2023-07-31T03:32:22;99930.26;;;26.67;43.36
63916;BME280;50094;51.356;-0.196;2023-07-31T03:34:50;99928.91;;;26.34;43.78
63916;BME280;50094;51.356;-0.196;2023-07-31T03:37:17;99923.56;;;26.45;43.63
63916;BME280;50094;51.356;-0.196;2023-07-31T03:39:45;99913.69;;;26.19;43.68
63916;BME280;50094;51.356;-0.196;2023-07-31T03:42:12;99909.52;;;26.51;43.46
63916;BME280;50094;51.356;-0.196;2023-07-31T03:44:39;99906.55;;;26.50;43.53
63916;BME280;50094;51.356;-0.196;2023-07-31T03:47:07;99905.58;;;26.29;43.52
63916;BME280;50094;51.356;-0.196;2023-07-31T03:49:34;99901.65;;;26.02;43.93
63916;BME280;50094;51.356;-0.196;2023-07-31T03:52:02;99893.93;;;26.46;43.55
63916;BME280;50094;51.356;-0.196;2023-07-31T03:54:30;99886.49;;;26.24;43.56
63916;BME280;50094;51.356;-0.196;2023-07-31T03:56:57;99885.75;;;26.75;43.54
63916;BME280;50094;51.356;-0.196;2023-07-31T03:59:25;99894.97;;;26.58;43.78
63916;BME280;50094;51.356;-0.196;2023-07-31T04:01:52;99898.63;;;26.81;43.40
63916;BME280;50094;51.356;-0.196;2023-07-31T04:04:20;99896.72;;;26.04;44.24
63916;BME280;50094;51.356;-0.196;2023-07-31T04:06:48;99892.50;;;26.16;44.53
63916;BME280;50094;51.356;-0.196;2023-07-31T04:09:14;99895.77;;;26.40;44.00
63916;BME280;50094;51.356;-0.196;2023-07-31T04:11:42;99898.69;;;26.56;43.90
63916;BME280;50094;51.356;-0.196;2023-07-31T04:14:09;99900.01;;;26.39;43.78
63916;BME280;50094;51.356;-0.196;2023-07-31T04:16:36;99898.25;;;26.31;43.96
63916;BME280;50094;51.356;-0.196;2023-07-31T04:19:04;99897.84;;;26.16;43.80
63916;BME280;50094;51.356;-0.196;2023-07-31T04:21:32;99896.75;;;26.70;43.61
63916;BME280;50094;51.356;-0.196;2023-07-31T04:23:59;99896.87;;;26.80;43.47
63916;BME280;50094;51.356;-0.196;2023-07-31T04:26:27;99889.76;;;26.63;43.70
63916;BME280;50094;51.356;-0.196;2023-07-31T04:28:54;99880.51;;;26.40;43.79
63916;BME280;50094;51.356;-0.196;2023-07-31T04:31:21;99878.25;;;26.43;43.77
63916;BME280;50094;51.356;-0.196;2023-07-31T04:33:48;99876.58;;;26.59;43.80
63916;BME280;50094;51.356;-0.196;2023-07-31T04:36:15;99880.89;;;26.75;43.64
63916;BME280;50094;51.356;-0.196;2023-07-31T04:38:42;99879.83;;;26.74;43.65
63916;BME280;50094;51.356;-0.196;2023-07-31T04:41:08;99875.29;;;26.63;43.46
63916;BME280;50094;51.356;-0.196;2023-07-31T04:43:35;99882.90;;;26.36;43.54
63916;BME280;50094;51.356;-0.196;2023-07-31T04:46:03;99881.79;;;26.37;43.78
63916;BME280;50094;51.356;-0.196;2023-07-31T04:48:30;99881.90;;;26.38;44.16
63916;BME280;50094;51.356;-0.196;2023-07-31T04:50:58;99879.95;;;26.13;44.23
63916;BME280;50094;51.356;-0.196;2023-07-31T04:53:25;99879.12;;;26.33;43.95
63916;BME280;50094;51.356;-0.196;2023-07-31T04:55:53;99881.18;;;26.73;43.59
63916;BME280;50094;51.356;-0.196;2023-07-31T04:58:21;99882.81;;;26.33;43.95
63916;BME280;50094;51.356;-0.196;2023-07-31T05:00:48;99882.84;;;26.47;44.07
63916;BME280;50094;51.356;-0.196;2023-07-31T05:03:16;99884.28;;;26.36;44.17
63916;BME280;50094;51.356;-0.196;2023-07-31T05:05:44;99880.44;;;26.49;43.98
63916;BME280;50094;51.356;-0.196;2023-07-31T05:08:11;99878.70;;;26.68;43.70
63916;BME280;50094;51.356;-0.196;2023-07-31T05:10:39;99876.50;;;25.86;44.24
63916;BME280;50094;51.356;-0.196;2023-07-31T05:13:06;99875.11;;;26.27;43.96
63916;BME280;50094;51.356;-0.196;2023-07-31T05:15:34;99876.33;;;25.99;44.10
63916;BME280;50094;51.356;-0.196;2023-07-31T05:18:02;99876.63;;;26.13;43.86
63916;BME280;50094;51.356;-0.196;2023-07-31T05:20:29;99873.76;;;26.46;43.67
63916;BME280;50094;51.356;-0.196;2023-07-31T05:22:56;99877.34;;;26.12;44.28
63916;BME280;50094;51.356;-0.196;2023-07-31T05:25:24;99873.93;;;26.30;44.30
63916;BME280;50094;51.356;-0.196;2023-07-31T05:27:51;99876.88;;;26.37;44.16
63916;BME280;50094;51.356;-0.196;2023-07-31T05:30:19;99870.61;;;26.05;44.08
63916;BME280;50094;51.356;-0.196;2023-07-31T05:32:47;99870.05;;;26.36;43.91
63916;BME280;50094;51.356;-0.196;2023-07-31T05:35:14;99869.87;;;26.47;43.76
63916;BME280;50094;51.356;-0.196;2023-07-31T05:37:42;99879.97;;;26.16;43.96
63916;BME280;50094;51.356;-0.196;2023-07-31T05:40:10;99876.48;;;26.52;43.71
63916;BME280;50094;51.356;-0.196;2023-07-31T05:42:37;99873.75;;;26.52;44.05
63916;BME280;50094;51.356;-0.196;2023-07-31T05:45:06;99871.26;;;26.13;44.28
63916;BME280;50094;51.356;-0.196;2023-07-31T05:47:33;99868.66;;;26.36;43.95
63916;BME280;50094;51.356;-0.196;2023-07-31T05:50:01;99877.79;;;26.32;44.16
63916;BME280;50094;51.356;-0.196;2023-07-31T05:52:29;99878.50;;;26.35;44.43
63916;BME280;50094;51.356;-0.196;2023-07-31T05:54:57;99872.76;;;26.45;44.30
63916;BME280;50094;51.356;-0.196;2023-07-31T05:57:23;99872.70;;;26.60;44.07
63916;BME280;50094;51.356;-0.196;2023-07-31T05:59:51;99872.02;;;26.30;44.53
63916;BME280;50094;51.356;-0.196;2023-07-31T06:02:19;99873.76;;;26.38;44.48
63916;BME280;50094;51.356;-0.196;2023-07-31T06:04:46;99873.92;;;26.39;44.02
63916;BME280;50094;51.356;-0.196;2023-07-31T06:07:14;99867.95;;;26.77;43.77
63916;BME280;50094;51.356;-0.196;2023-07-31T06:09:42;99872.63;;;26.36;44.50
63916;BME280;50094;51.356;-0.196;2023-07-31T06:12:09;99879.56;;;26.26;44.49
63916;BME280;50094;51.356;-0.196;2023-07-31T06:14:37;99872.38;;;26.24;44.17
63916;BME280;50094;51.356;-0.196;2023-07-31T06:17:05;99870.85;;;26.41;43.84
63916;BME280;50094;51.356;-0.196;2023-07-31T06:19:32;99873.60;;;26.89;43.83
63916;BME280;50094;51.356;-0.196;2023-07-31T06:22:00;99870.72;;;26.47;44.06
63916;BME280;50094;51.356;-0.196;2023-07-31T06:24:28;99874.96;;;26.10;44.40
63916;BME280;50094;51.356;-0.196;2023-07-31T06:26:55;99872.73;;;26.46;44.17
63916;BME280;50094;51.356;-0.196;2023-07-31T06:29:22;99869.30;;;25.95;44.29
63916;BME280;50094;51.356;-0.196;2023-07-31T06:31:50;99861.89;;;26.43;44.16
63916;BME280;50094;51.356;-0.196;2023-07-31T06:34:18;99860.57;;;26.31;44.16
63916;BME280;50094;51.356;-0.196;2023-07-31T06:36:45;99860.57;;;26.41;44.21
63916;BME280;50094;51.356;-0.196;2023-07-31T06:39:13;99864.03;;;25.99;44.24
63916;BME280;50094;51.356;-0.196;2023-07-31T06:41:41;99858.15;;;26.19;44.23
63916;BME280;50094;51.356;-0.196;2023-07-31T06:44:08;99859.28;;;26.63;43.91
63916;BME280;50094;51.356;-0.196;2023-07-31T06:46:36;99860.94;;;26.56;44.01
63916;BME280;50094;51.356;-0.196;2023-07-31T06:49:03;99864.26;;;25.83;44.82
63916;BME280;50094;51.356;-0.196;2023-07-31T06:51:31;99859.95;;;26.27;44.56
63916;BME280;50094;51.356;-0.196;2023-07-31T06:53:59;99855.59;;;26.27;44.40
63916;BME280;50094;51.356;-0.196;2023-07-31T06:56:26;99858.54;;;26.48;44.09
63916;BME280;50094;51.356;-0.196;2023-07-31T06:58:55;99853.24;;;26.12;44.29
63916;BME280;50094;51.356;-0.196;2023-07-31T07:01:22;99841.68;;;26.45;44.08
63916;BME280;50094;51.356;-0.196;2023-07-31T07:03:49;99840.66;;;26.34;44.36
63916;BME280;50094;51.356;-0.196;2023-07-31T07:06:17;99835.74;;;26.31;44.33
63916;BME280;50094;51.356;-0.196;2023-07-31T07:08:44;99839.92;;;26.29;44.04
63916;BME280;50094;51.356;-0.196;2023-07-31T07:11:12;99837.94;;;26.33;44.31
63916;BME280;50094;51.356;-0.196;2023-07-31T07:13:39;99834.22;;;26.13;44.57
63916;BME280;50094;51.356;-0.196;2023-07-31T07:16:06;99833.08;;;26.46;44.18
63916;BME280;50094;51.356;-0.196;2023-07-31T07:18:34;99829.40;;;26.55;44.06
63916;BME280;50094;51.356;-0.196;2023-07-31T07:21:02;99828.77;;;26.63;43.86
63916;BME280;50094;51.356;-0.196;2023-07-31T07:23:29;99825.97;;;26.36;43.90
63916;BME280;50094;51.356;-0.196;2023-07-31T07:25:57;99822.69;;;26.07;44.30
63916;BME280;50094;51.356;-0.196;2023-07-31T07:28:25;99825.57;;;26.40;44.10
63916;BME280;50094;51.356;-0.196;2023-07-31T07:30:52;99825.12;;;25.99;44.03
63916;BME280;50094;51.356;-0.196;2023-07-31T07:33:20;99823.11;;;26.16;44.45
63916;BME280;50094;51.356;-0.196;2023-07-31T07:35:47;99823.08;;;26.11;44.26
63916;BME280;50094;51.356;-0.196;2023-07-31T07:38:15;99812.97;;;26.25;44.35
63916;BME280;50094;51.356;-0.196;2023-07-31T07:40:43;99813.30;;;26.36;44.20
63916;BME280;50094;51.356;-0.196;2023-07-31T07:43:10;99811.43;;;26.24;44.12
63916;BME280;50094;51.356;-0.196;2023-07-31T07:45:38;99812.35;;;26.20;44.50
63916;BME280;50094;51.356;-0.196;2023-07-31T07:48:05;99810.46;;;26.14;44.25
63916;BME280;50094;51.356;-0.196;2023-07-31T07:50:32;99814.88;;;26.07;44.76
63916;BME280;50094;51.356;-0.196;2023-07-31T07:53:00;99814.50;;;26.53;44.11
63916;BME280;50094;51.356;-0.196;2023-07-31T07:55:27;99803.84;;;26.10;44.30
63916;BME280;50094;51.356;-0.196;2023-07-31T07:57:55;99805.32;;;26.13;44.58
63916;BME280;50094;51.356;-0.196;2023-07-31T08:00:21;99801.10;;;26.43;44.06
63916;BME280;50094;51.356;-0.196;2023-07-31T08:02:49;99799.72;;;26.35;44.20
63916;BME280;50094;51.356;-0.196;2023-07-31T08:05:16;99801.63;;;26.24;44.35
63916;BME280;50094;51.356;-0.196;2023-07-31T08:07:43;99793.57;;;26.36;43.87
63916;BME280;50094;51.356;-0.196;2023-07-31T08:10:11;99798.44;;;26.22;43.91
63916;BME280;50094;51.356;-0.196;2023-07-31T08:12:38;99794.69;;;26.47;43.82
63916;BME280;50094;51.356;-0.196;2023-07-31T08:15:07;99794.71;;;26.37;44.03
63916;BME280;50094;51.356;-0.196;2023-07-31T08:17:34;99789.17;;;25.82;44.11
63916;BME280;50094;51.356;-0.196;2023-07-31T08:20:02;99779.54;;;26.35;44.00
63916;BME280;50094;51.356;-0.196;2023-07-31T08:22:29;99785.24;;;26.55;43.73
63916;BME280;50094;51.356;-0.196;2023-07-31T08:24:56;99784.04;;;26.70;43.51
63916;BME280;50094;51.356;-0.196;2023-07-31T08:27:23;99769.93;;;26.65;43.63
63916;BME280;50094;51.356;-0.196;2023-07-31T08:29:52;99762.57;;;26.36;43.88
63916;BME280;50094;51.356;-0.196;2023-07-31T08:32:18;99766.71;;;26.08;44.01
63916;BME280;50094;51.356;-0.196;2023-07-31T08:34:45;99763.97;;;26.14;43.95
63916;BME280;50094;51.356;-0.196;2023-07-31T08:37:13;99761.79;;;26.21;43.82
63916;BME280;50094;51.356;-0.196;2023-07-31T08:39:40;99766.52;;;26.64;43.64
63916;BME280;50094;51.356;-0.196;2023-07-31T08:42:08;99773.47;;;26.45;43.79
63916;BME280;50094;51.356;-0.196;2023-07-31T08:44:35;99772.29;;;26.29;43.63
63916;BME280;50094;51.356;-0.196;2023-07-31T08:47:04;99761.32;;;26.27;43.68
63916;BME280;50094;51.356;-0.196;2023-07-31T08:49:31;99753.90;;;26.08;43.70
63916;BME280;50094;51.356;-0.196;2023-07-31T08:51:59;99753.27;;;26.18;44.10
63916;BME280;50094;51.356;-0.196;2023-07-31T08:54:26;99752.49;;;26.27;44.04
63916;BME280;50094;51.356;-0.196;2023-07-31T08:56:54;99757.85;;;26.15;43.84
63916;BME280;50094;51.356;-0.196;2023-07-31T08:59:23;99752.01;;;26.32;43.52
63916;BME280;50094;51.356;-0.196;2023-07-31T09:01:53;99755.36;;;26.17;43.77
63916;BME280;50094;51.356;-0.196;2023-07-31T09:04:23;99756.54;;;26.62;43.42
63916;BME280;50094;51.356;-0.196;2023-07-31T09:06:54;99750.51;;;26.44;43.67
63916;BME280;50094;51.356;-0.196;2023-07-31T09:09:24;99753.38;;;26.65;43.45
63916;BME280;50094;51.356;-0.196;2023-07-31T09:11:51;99747.86;;;26.48;43.59
63916;BME280;50094;51.356;-0.196;2023-07-31T09:14:19;99751.56;;;26.56;43.56
63916;BME280;50094;51.356;-0.196;2023-07-31T09:16:55;99748.34;;;26.55;43.28
63916;BME280;50094;51.356;-0.196;2023-07-31T09:19:26;99751.88;;;26.50;43.20
63916;BME280;50094;51.356;-0.196;2023-07-31T09:21:55;99753.28;;;26.54;43.45
63916;BME280;50094;51.356;-0.196;2023-07-31T09:24:26;99764.42;;;26.36;43.71
63916;BME280;50094;51.356;-0.196;2023-07-31T09:26:54;99755.37;;;26.45;43.54
63916;BME280;50094;51.356;-0.196;2023-07-31T09:29:22;99746.12;;;26.43;43.60
63916;BME280;50094;51.356;-0.196;2023-07-31T09:31:51;99740.22;;;26.61;43.24
63916;BME280;50094;51.356;-0.196;2023-07-31T09:34:18;99738.25;;;26.55;43.34
63916;BME280;50094;51.356;-0.196;2023-07-31T09:36:47;99729.00;;;26.64;43.23
63916;BME280;50094;51.356;-0.196;2023-07-31T09:39:17;99738.27;;;26.39;43.51
63916;BME280;50094;51.356;-0.196;2023-07-31T09:41:48;99732.65;;;26.24;43.45
63916;BME280;50094;51.356;-0.196;2023-07-31T09:44:20;99726.76;;;26.47;43.31
63916;BME280;50094;51.356;-0.196;2023-07-31T09:46:47;99723.55;;;26.22;43.33
63916;BME280;50094;51.356;-0.196;2023-07-31T09:49:15;99710.73;;;26.03;43.72
63916;BME280;50094;51.356;-0.196;2023-07-31T09:51:43;99704.88;;;26.31;43.31
63916;BME280;50094;51.356;-0.196;2023-07-31T09:54:11;99712.59;;;26.43;43.40
63916;BME280;50094;51.356;-0.196;2023-07-31T09:56:42;99719.63;;;26.16;43.91
63916;BME280;50094;51.356;-0.196;2023-07-31T09:59:11;99718.72;;;26.30;43.67
63916;BME280;50094;51.356;-0.196;2023-07-31T10:01:40;99728.28;;;26.24;43.70
63916;BME280;50094;51.356;-0.196;2023-07-31T10:04:08;99720.76;;;26.54;43.54
63916;BME280;50094;51.356;-0.196;2023-07-31T10:06:36;99706.25;;;26.78;43.08
63916;BME280;50094;51.356;-0.196;2023-07-31T10:09:06;99679.36;;;25.72;43.98
63916;BME280;50094;51.356;-0.196;2023-07-31T10:11:38;99678.79;;;26.30;43.65
63916;BME280;50094;51.356;-0.196;2023-07-31T10:14:09;99669.41;;;25.85;44.08
63916;BME280;50094;51.356;-0.196;2023-07-31T10:16:38;99676.29;;;26.06;43.64
63916;BME280;50094;51.356;-0.196;2023-07-31T10:19:06;99703.99;;;26.50;43.11
63916;BME280;50094;51.356;-0.196;2023-07-31T10:21:33;99714.23;;;26.54;43.09
63916;BME280;50094;51.356;-0.196;2023-07-31T10:24:03;99714.66;;;26.17;43.52
63916;BME280;50094;51.356;-0.196;2023-07-31T10:26:32;99702.34;;;26.33;43.22
63916;BME280;50094;51.356;-0.196;2023-07-31T10:29:00;99680.35;;;26.41;43.21
63916;BME280;50094;51.356;-0.196;2023-07-31T10:31:28;99676.80;;;26.02;43.74
63916;BME280;50094;51.356;-0.196;2023-07-31T10:33:57;99688.26;;;26.14;43.20
63916;BME280;50094;51.356;-0.196;2023-07-31T10:36:25;99704.92;;;26.31;43.24
63916;BME280;50094;51.356;-0.196;2023-07-31T10:38:53;99697.54;;;26.23;43.58
63916;BME280;50094;51.356;-0.196;2023-07-31T10:41:29;99714.26;;;25.96;43.94
63916;BME280;50094;51.356;-0.196;2023-07-31T10:43:58;99727.12;;;25.95;43.78
63916;BME280;50094;51.356;-0.196;2023-07-31T10:46:25;99731.14;;;26.03;43.80
63916;BME280;50094;51.356;-0.196;2023-07-31T10:48:58;99730.02;;;26.03;43.63
63916;BME280;50094;51.356;-0.196;2023-07-31T10:51:32;99731.67;;;26.02;43.65
63916;BME280;50094;51.356;-0.196;2023-07-31T10:54:11;99737.62;;;25.93;43.77
63916;BME280;50094;51.356;-0.196;2023-07-31T10:56:38;99727.08;;;25.89;43.90
63916;BME280;50094;51.356;-0.196;2023-07-31T10:59:05;99725.21;;;26.06;43.56
63916;BME280;50094;51.356;-0.196;2023-07-31T11:02:04;99727.17;;;26.00;43.65
63916;BME280;50094;51.356;-0.196;2023-07-31T11:04:31;99713.63;;;26.15;43.84
63916;BME280;50094;51.356;-0.196;2023-07-31T11:06:59;99724.77;;;26.04;43.53
63916;BME280;50094;51.356;-0.196;2023-07-31T11:09:29;99722.99;;;26.00;43.57
63916;BME280;50094;51.356;-0.196;2023-07-31T11:11:56;99726.06;;;26.28;43.55
63916;BME280;50094;51.356;-0.196;2023-07-31T11:14:24;99712.80;;;25.68;44.07
63916;BME280;50094;51.356;-0.196;2023-07-31T11:16:52;99710.32;;;25.66;44.02
63916;BME280;50094;51.356;-0.196;2023-07-31T11:19:22;99708.63;;;25.96;43.35
63916;BME280;50094;51.356;-0.196;2023-07-31T11:21:50;99707.70;;;26.18;43.10
63916;BME280;50094;51.356;-0.196;2023-07-31T11:24:18;99719.18;;;25.83;43.04
63916;BME280;50094;51.356;-0.196;2023-07-31T11:26:50;99719.59;;;25.85;42.68
63916;BME280;50094;51.356;-0.196;2023-07-31T11:29:17;99702.89;;;25.93;42.59
63916;BME280;50094;51.356;-0.196;2023-07-31T11:31:44;99711.50;;;26.42;42.32
63916;BME280;50094;51.356;-0.196;2023-07-31T11:34:12;99717.38;;;25.88;42.64
63916;BME280;50094;51.356;-0.196;2023-07-31T11:36:39;99710.37;;;25.88;42.73
63916;BME280;50094;51.356;-0.196;2023-07-31T11:39:08;99706.80;;;25.87;42.04
63916;BME280;50094;51.356;-0.196;2023-07-31T11:41:40;99710.94;;;26.02;41.58
63916;BME280;50094;51.356;-0.196;2023-07-31T11:44:07;99717.79;;;26.14;41.68
63916;BME280;50094;51.356;-0.196;2023-07-31T11:46:36;99717.37;;;26.08;41.82
63916;BME280;50094;51.356;-0.196;2023-07-31T11:49:03;99735.85;;;26.09;41.60
63916;BME280;50094;51.356;-0.196;2023-07-31T11:51:30;99736.22;;;26.14;41.46
63916;BME280;50094;51.356;-0.196;2023-07-31T11:54:00;99735.45;;;26.06;41.93
63916;BME280;50094;51.356;-0.196;2023-07-31T11:56:28;99740.19;;;26.11;41.63
63916;BME280;50094;51.356;-0.196;2023-07-31T11:58:58;99733.46;;;26.22;41.43
63916;BME280;50094;51.356;-0.196;2023-07-31T12:01:26;99730.51;;;26.13;41.67
63916;BME280;50094;51.356;-0.196;2023-07-31T12:03:55;99727.23;;;26.03;41.15
63916;BME280;50094;51.356;-0.196;2023-07-31T12:06:32;99724.99;;;26.46;41.28
63916;BME280;50094;51.356;-0.196;2023-07-31T12:09:02;99728.99;;;26.01;41.61
63916;BME280;50094;51.356;-0.196;2023-07-31T12:11:28;99728.84;;;26.42;41.28
63916;BME280;50094;51.356;-0.196;2023-07-31T12:13:56;99729.09;;;26.48;41.49
63916;BME280;50094;51.356;-0.196;2023-07-31T12:16:26;99731.49;;;26.07;41.38
63916;BME280;50094;51.356;-0.196;2023-07-31T12:18:54;99734.17;;;26.18;41.51
63916;BME280;50094;51.356;-0.196;2023-07-31T12:21:21;99729.74;;;26.07;41.46
63916;BME280;50094;51.356;-0.196;2023-07-31T12:23:51;99721.85;;;26.21;41.59
63916;BME280;50094;51.356;-0.196;2023-07-31T12:26:18;99715.08;;;25.88;41.60
63916;BME280;50094;51.356;-0.196;2023-07-31T12:28:47;99711.77;;;26.07;41.34
63916;BME280;50094;51.356;-0.196;2023-07-31T12:31:17;99714.16;;;26.47;41.00
63916;BME280;50094;51.356;-0.196;2023-07-31T12:33:45;99715.41;;;26.25;41.03
63916;BME280;50094;51.356;-0.196;2023-07-31T12:36:13;99715.92;;;25.85;41.49
63916;BME280;50094;51.356;-0.196;2023-07-31T12:38:41;99710.47;;;26.07;41.10
63916;BME280;50094;51.356;-0.196;2023-07-31T12:41:09;99706.25;;;26.00;41.05
63916;BME280;50094;51.356;-0.196;2023-07-31T12:43:37;99707.04;;;25.74;41.50
63916;BME280;50094;51.356;-0.196;2023-07-31T12:46:05;99699.50;;;25.74;41.28
63916;BME280;50094;51.356;-0.196;2023-07-31T12:48:34;99697.05;;;25.97;41.16
63916;BME280;50094;51.356;-0.196;2023-07-31T12:51:01;99695.87;;;25.86;41.16
63916;BME280;50094;51.356;-0.196;2023-07-31T12:53:29;99690.74;;;25.74;41.38